Time;durP1;ratioP1;P1;durP2;ratioP2;P2;SDS_P1;SDS_P2;PMS_P1;PMS_P2;Temp;Humidity;BMP_temperature;BMP_pressure;BME280_temperature;BME280_humidity;BME280_pressure;Samples;Min_cycle;Max_cycle;Signal;HPM_P1;HPM_P2
2024/03/29 01:44:23;;;;;;;0.40;0.40;;;;;;;5.92;95.71;97232.78;5055139;28;20052;-58
2024/03/29 01:46:50;;;;;;;0.40;0.40;;;;;;;5.89;96.63;97239.44;5053968;28;20533;-58
2024/03/29 01:49:17;;;;;;;0.40;0.40;;;;;;;5.82;98.23;97225.56;5053783;28;20076;-58
2024/03/29 01:51:44;;;;;;;0.30;0.30;;;;;;;5.83;97.42;97209.34;5049881;28;20045;-58
2024/03/29 01:54:11;;;;;;;0.40;0.40;;;;;;;5.64;99.42;97210.84;5048907;28;20045;-58
2024/03/29 01:56:39;;;;;;;0.30;0.30;;;;;;;5.76;99.51;97224.72;5048037;28;20051;-58
2024/03/29 01:59:07;;;;;;;0.32;0.32;;;;;;;5.73;98.87;97204.00;5054400;28;20075;-58
2024/03/29 02:01:34;;;;;;;0.40;0.40;;;;;;;5.60;100.00;97199.97;5044703;28;20725;-58
2024/03/29 02:04:01;;;;;;;0.40;0.40;;;;;;;5.21;100.00;97174.81;5053209;28;20041;-58
2024/03/29 02:06:28;;;;;;;0.40;0.40;;;;;;;5.06;100.00;97168.34;5052280;28;20051;-58
2024/03/29 02:08:55;;;;;;;0.40;0.40;;;;;;;5.27;100.00;97169.25;5052089;28;20049;-57
2024/03/29 02:11:22;;;;;;;0.40;0.40;;;;;;;5.40;100.00;97187.38;5050769;28;20168;-58
2024/03/29 02:13:49;;;;;;;0.40;0.40;;;;;;;5.55;100.00;97185.84;5049004;28;20049;-58
2024/03/29 02:16:19;;;;;;;0.30;0.30;;;;;;;5.68;100.00;97165.97;5048520;28;20045;-58
2024/03/29 02:18:46;;;;;;;0.40;0.40;;;;;;;5.35;100.00;97168.75;5054173;28;20107;-58
2024/03/29 02:21:13;;;;;;;0.47;0.47;;;;;;;5.59;100.00;97179.78;5055412;28;20044;-58
2024/03/29 02:23:45;;;;;;;0.47;0.47;;;;;;;5.76;100.00;97166.25;5061128;28;20040;-58
2024/03/29 02:26:13;;;;;;;0.50;0.50;;;;;;;5.75;99.54;97159.34;5058808;28;20762;-58
2024/03/29 02:28:40;;;;;;;0.50;0.50;;;;;;;5.78;100.00;97166.78;5058499;28;20040;-58
2024/03/29 02:31:08;;;;;;;0.40;0.40;;;;;;;5.35;100.00;97157.34;5053532;28;20137;-58
2024/03/29 02:33:35;;;;;;;0.50;0.50;;;;;;;4.95;100.00;97162.19;5055370;28;20102;-58
2024/03/29 02:36:02;;;;;;;0.40;0.40;;;;;;;4.97;100.00;97162.72;5057311;28;20037;-58
2024/03/29 02:38:29;;;;;;;0.30;0.30;;;;;;;5.08;100.00;97155.59;5058261;28;20044;-58
2024/03/29 02:40:56;;;;;;;0.47;0.47;;;;;;;5.28;100.00;97178.81;5062822;28;20052;-58
2024/03/29 02:43:24;;;;;;;0.40;0.40;;;;;;;5.46;100.00;97187.41;5056150;28;20456;-58
2024/03/29 02:45:51;;;;;;;0.40;0.40;;;;;;;5.45;100.00;97181.31;5057713;28;20840;-58
2024/03/29 02:48:18;;;;;;;0.40;0.40;;;;;;;5.49;100.00;97170.94;5055922;28;20159;-58
2024/03/29 02:50:45;;;;;;;0.40;0.40;;;;;;;5.60;100.00;97165.41;5053154;28;20032;-58
2024/03/29 02:53:11;;;;;;;0.40;0.40;;;;;;;5.80;100.00;97158.56;5041101;28;20044;-58
2024/03/29 02:55:41;;;;;;;0.30;0.30;;;;;;;5.90;99.55;97155.13;5052215;28;20087;-59
2024/03/29 02:58:07;;;;;;;0.40;0.40;;;;;;;6.02;98.31;97142.44;5056137;28;20045;-58
2024/03/29 03:00:36;;;;;;;0.40;0.40;;;;;;;5.95;99.18;97153.31;5057185;28;20055;-58
2024/03/29 03:03:02;;;;;;;0.40;0.40;;;;;;;5.90;100.00;97155.13;5053195;28;20052;-57
2024/03/29 03:05:30;;;;;;;0.35;0.35;;;;;;;5.99;98.38;97157.06;5049266;28;20048;-58
2024/03/29 03:11:00;;;;;;;0.38;0.38;;;;;;;6.14;98.24;97158.94;5018487;28;20045;-58
2024/03/29 03:13:28;;;;;;;0.30;0.30;;;;;;;5.95;100.00;97157.84;5057760;28;20423;-58
2024/03/29 03:15:56;;;;;;;0.40;0.40;;;;;;;5.62;100.00;97165.97;5059526;28;20136;-58
2024/03/29 03:18:23;;;;;;;0.40;0.40;;;;;;;5.67;100.00;97162.53;5053449;28;20650;-58
2024/03/29 03:20:52;;;;;;;0.30;0.30;;;;;;;5.62;100.00;97139.38;5054188;28;20768;-58
2024/03/29 03:23:19;;;;;;;0.40;0.40;;;;;;;5.90;100.00;97141.84;5054281;28;20136;-58
2024/03/29 03:25:45;;;;;;;0.40;0.40;;;;;;;6.33;95.79;97147.78;5050880;28;20040;-58
2024/03/29 03:28:12;;;;;;;0.43;0.43;;;;;;;6.34;95.99;97149.34;5056067;28;20094;-58
2024/03/29 03:30:39;;;;;;;0.40;0.40;;;;;;;6.24;98.55;97148.31;5056827;28;20036;-58
2024/03/29 03:33:08;;;;;;;0.30;0.30;;;;;;;6.16;100.00;97146.16;5054428;28;20041;-58
2024/03/29 03:35:34;;;;;;;0.38;0.38;;;;;;;5.75;100.00;97147.91;5055733;28;20052;-58
2024/03/29 03:38:01;;;;;;;0.50;0.50;;;;;;;5.60;100.00;97151.34;5035056;28;20048;-58
2024/03/29 03:40:27;;;;;;;0.40;0.40;;;;;;;5.04;100.00;97148.41;5056186;28;20109;-58
2024/03/29 03:42:54;;;;;;;0.30;0.30;;;;;;;5.04;100.00;97154.53;5054627;28;20619;-58
2024/03/29 03:45:20;;;;;;;0.40;0.40;;;;;;;5.36;100.00;97161.59;5052764;28;20047;-59
2024/03/29 03:47:47;;;;;;;0.40;0.40;;;;;;;5.80;100.00;97164.69;5056322;28;20055;-59
2024/03/29 03:50:15;;;;;;;0.40;0.40;;;;;;;6.12;100.00;97184.22;5054095;28;20138;-59
2024/03/29 03:52:45;;;;;;;0.38;0.38;;;;;;;6.06;100.00;97180.72;5049148;28;20447;-59
2024/03/29 03:55:11;;;;;;;0.47;0.47;;;;;;;6.03;100.00;97174.06;5050586;28;20151;-59
2024/03/29 03:57:38;;;;;;;0.40;0.40;;;;;;;6.09;100.00;97187.38;5046652;28;20487;-59
2024/03/29 04:00:06;;;;;;;0.40;0.40;;;;;;;6.23;100.00;97185.81;5033915;28;20081;-59
2024/03/29 04:02:39;;;;;;;0.35;0.35;;;;;;;6.55;100.00;97190.09;5055375;28;20037;-59
2024/03/29 04:05:06;;;;;;;0.50;0.50;;;;;;;6.67;100.00;97174.66;5057402;28;20040;-59
2024/03/29 04:07:34;;;;;;;0.30;0.30;;;;;;;6.79;100.00;97169.88;5054341;28;20041;-59
2024/03/29 04:10:00;;;;;;;0.40;0.40;;;;;;;6.83;100.00;97162.13;5051194;28;20050;-59
2024/03/29 04:12:27;;;;;;;0.43;0.43;;;;;;;6.80;100.00;97147.47;5055025;28;20049;-58
2024/03/29 04:14:53;;;;;;;0.40;0.40;;;;;;;6.80;100.00;97147.47;5050681;28;20041;-58
2024/03/29 04:17:20;;;;;;;0.40;0.40;;;;;;;6.75;100.00;97141.38;5053160;28;20057;-59
2024/03/29 04:19:46;;;;;;;0.35;0.35;;;;;;;6.80;100.00;97144.03;5052240;28;20128;-59
2024/03/29 04:22:13;;;;;;;0.40;0.40;;;;;;;6.82;100.00;97134.69;5051342;28;20148;-59
2024/03/29 04:24:41;;;;;;;0.40;0.40;;;;;;;6.96;100.00;97139.47;5048056;28;20650;-58
2024/03/29 04:27:08;;;;;;;0.45;0.45;;;;;;;6.92;100.00;97133.88;5054507;28;20487;-59
2024/03/29 04:29:34;;;;;;;0.40;0.40;;;;;;;6.96;100.00;97129.59;5056305;28;20515;-59
2024/03/29 04:32:01;;;;;;;0.40;0.40;;;;;;;7.00;100.00;97125.34;5048076;28;20183;-58
2024/03/29 04:34:27;;;;;;;0.30;0.30;;;;;;;7.09;100.00;97118.41;5052619;28;20053;-59
2024/03/29 04:36:54;;;;;;;0.40;0.40;;;;;;;7.08;100.00;97123.97;5052912;28;20036;-58
2024/03/29 04:39:21;;;;;;;0.40;0.40;;;;;;;7.12;100.00;97117.84;5048222;28;20041;-59
2024/03/29 04:41:50;;;;;;;0.40;0.40;;;;;;;7.18;100.00;97112.50;5051079;28;20050;-59
2024/03/29 04:44:24;;;;;;;0.30;0.30;;;;;;;7.26;100.00;97125.25;5054523;28;20047;-58
2024/03/29 04:46:51;;;;;;;0.30;0.30;;;;;;;7.27;100.00;97117.00;5053769;28;20106;-59
2024/03/29 04:49:22;;;;;;;0.30;0.30;;;;;;;7.34;100.00;97125.50;5055331;28;20144;-59
2024/03/29 04:51:49;;;;;;;0.40;0.40;;;;;;;7.36;100.00;97127.88;5053438;28;20048;-59
2024/03/29 04:54:17;;;;;;;0.40;0.40;;;;;;;7.42;100.00;97121.47;5055517;28;20050;-59
2024/03/29 04:56:44;;;;;;;0.30;0.30;;;;;;;7.51;100.00;97127.03;5048489;28;20051;-59
2024/03/29 04:59:13;;;;;;;0.30;0.30;;;;;;;7.40;100.00;97128.94;5059592;28;20123;-58
2024/03/29 05:01:44;;;;;;;0.30;0.30;;;;;;;7.27;100.00;97133.00;5050824;28;20708;-59
2024/03/29 05:04:11;;;;;;;0.30;0.30;;;;;;;7.25;100.00;97137.00;5051462;28;20044;-59
2024/03/29 05:06:37;;;;;;;0.40;0.40;;;;;;;7.38;100.00;97133.75;5049820;28;20095;-59
2024/03/29 05:09:05;;;;;;;0.40;0.40;;;;;;;7.29;100.00;97138.06;5048700;28;20064;-59
2024/03/29 05:11:32;;;;;;;0.35;0.35;;;;;;;7.19;100.00;97132.72;5053921;28;20045;-59
2024/03/29 05:14:00;;;;;;;0.30;0.30;;;;;;;7.26;100.00;97130.59;5049528;28;20052;-59
2024/03/29 05:16:29;;;;;;;0.50;0.50;;;;;;;7.33;100.00;97137.22;5054120;28;20131;-59
2024/03/29 05:18:56;;;;;;;0.30;0.30;;;;;;;7.22;100.00;97129.56;5051844;28;20040;-58
2024/03/29 05:21:23;;;;;;;0.43;0.43;;;;;;;7.20;100.00;97137.00;5046865;28;20513;-57
2024/03/29 05:23:50;;;;;;;0.30;0.30;;;;;;;7.25;100.00;97137.00;5051593;28;20109;-58
2024/03/29 05:26:17;;;;;;;0.40;0.40;;;;;;;7.30;100.00;97144.97;5045611;28;20048;-58
2024/03/29 05:28:44;;;;;;;0.30;0.30;;;;;;;7.39;100.00;97143.34;5058597;28;20048;-58
2024/03/29 05:31:13;;;;;;;0.32;0.32;;;;;;;7.30;100.00;97140.44;5061961;28;20562;-58
2024/03/29 05:33:41;;;;;;;0.40;0.40;;;;;;;7.23;100.00;97144.44;5055651;28;20044;-58
2024/03/29 05:36:10;;;;;;;0.40;0.40;;;;;;;7.30;100.00;97145.75;5049022;28;20121;-57
2024/03/29 05:38:37;;;;;;;0.30;0.30;;;;;;;7.39;100.00;97140.69;5052373;28;20127;-58
2024/03/29 05:41:05;;;;;;;0.30;0.30;;;;;;;7.39;100.00;97151.34;5048945;28;20065;-57
2024/03/29 05:43:32;;;;;;;0.40;0.40;;;;;;;7.50;100.00;97142.22;5049287;28;20461;-57
2024/03/29 05:46:00;;;;;;;0.50;0.50;;;;;;;7.34;100.00;97138.03;5054758;28;20033;-58
2024/03/29 05:48:27;;;;;;;0.30;0.30;;;;;;;7.42;100.00;97142.78;5051594;28;20402;-58
2024/03/29 05:50:55;;;;;;;0.40;0.40;;;;;;;7.29;100.00;97140.72;5049149;28;20124;-57
2024/03/29 05:53:22;;;;;;;0.40;0.40;;;;;;;7.28;100.00;97149.78;5055203;28;20143;-59
2024/03/29 05:55:49;;;;;;;0.25;0.25;;;;;;;7.41;100.00;97151.84;5057524;28;20131;-58
2024/03/29 05:58:18;;;;;;;0.35;0.35;;;;;;;7.40;100.00;97141.47;5052695;28;20050;-58
2024/03/29 06:00:51;;;;;;;0.30;0.30;;;;;;;7.27;100.00;97153.50;5048457;28;20060;-58
2024/03/29 06:03:18;;;;;;;0.30;0.30;;;;;;;7.40;100.00;97160.13;5050577;28;20053;-58
2024/03/29 06:05:47;;;;;;;0.40;0.40;;;;;;;7.22;100.00;97170.31;5052436;28;20068;-58
2024/03/29 06:08:16;;;;;;;0.30;0.30;;;;;;;7.46;100.00;97185.69;5043794;28;20040;-58
2024/03/29 06:10:43;;;;;;;0.40;0.40;;;;;;;7.57;100.00;97182.72;5052324;28;20088;-58
2024/03/29 06:13:27;;;;;;;0.38;0.38;;;;;;;7.60;100.00;97175.25;5058916;28;20082;-58
2024/03/29 06:18:39;;;;;;;0.30;0.30;;;;;;;7.73;100.00;97177.31;5061867;28;20056;-58
2024/03/29 06:21:06;;;;;;;0.30;0.30;;;;;;;7.59;100.00;97181.63;5064644;28;20044;-58
2024/03/29 06:23:34;;;;;;;0.45;0.45;;;;;;;7.61;100.00;97190.16;5053131;28;20692;-58
2024/03/29 06:26:01;;;;;;;0.40;0.40;;;;;;;7.59;100.00;97189.63;5053565;28;20049;-58
2024/03/29 06:28:28;;;;;;;0.38;0.38;;;;;;;7.53;100.00;97186.97;5052387;28;20033;-58
2024/03/29 06:30:55;;;;;;;0.30;0.30;;;;;;;7.64;100.00;97184.28;5046809;28;20179;-60
2024/03/29 06:33:22;;;;;;;0.40;0.40;;;;;;;7.67;100.00;97186.41;5058630;28;20089;-57
2024/03/29 06:35:54;;;;;;;0.22;0.22;;;;;;;7.65;100.00;97189.34;5059858;28;20536;-58
2024/03/29 06:38:21;;;;;;;0.40;0.40;;;;;;;7.84;100.00;97196.72;5064923;28;20430;-58
2024/03/29 06:40:50;;;;;;;0.40;0.40;;;;;;;7.86;100.00;97197.25;5050515;28;20127;-58
2024/03/29 06:43:17;;;;;;;0.30;0.30;;;;;;;7.94;100.00;97191.38;5053360;28;20091;-57
2024/03/29 06:45:44;;;;;;;0.30;0.30;;;;;;;8.13;100.00;97186.19;5057751;28;20064;-58
2024/03/29 06:48:11;;;;;;;0.30;0.30;;;;;;;8.08;100.00;97191.53;5061078;28;20040;-57
2024/03/29 06:50:40;;;;;;;0.30;0.30;;;;;;;8.13;100.00;97199.50;5052776;28;20048;-58
2024/03/29 06:53:08;;;;;;;0.30;0.30;;;;;;;8.23;100.00;97198.66;5059915;28;20059;-58
2024/03/29 06:55:36;;;;;;;0.30;0.30;;;;;;;8.53;100.00;97203.03;5061649;28;20049;-58
2024/03/29 06:58:05;;;;;;;0.20;0.20;;;;;;;8.49;100.00;97202.78;5060154;28;20125;-58
2024/03/29 07:00:32;;;;;;;0.30;0.30;;;;;;;8.59;100.00;97201.94;5049393;28;20041;-59
2024/03/29 07:02:59;;;;;;;0.30;0.30;;;;;;;8.32;100.00;97197.00;5053732;28;20048;-58
2024/03/29 07:05:26;;;;;;;0.30;0.30;;;;;;;8.63;100.00;97208.28;5058154;28;20762;-58
2024/03/29 07:07:54;;;;;;;0.30;0.30;;;;;;;8.42;100.00;97208.44;5059171;28;20155;-58
2024/03/29 07:10:21;;;;;;;0.30;0.30;;;;;;;8.50;100.00;97211.59;5052611;28;20139;-58
2024/03/29 07:12:48;;;;;;;0.28;0.28;;;;;;;8.74;100.00;97215.16;5056105;28;20052;-58
2024/03/29 07:15:16;;;;;;;0.20;0.20;;;;;;;8.70;100.00;97219.44;5060405;28;20040;-58
2024/03/29 07:17:44;;;;;;;0.30;0.30;;;;;;;8.66;100.00;97234.44;5051779;28;20052;-58
2024/03/29 07:20:11;;;;;;;0.40;0.40;;;;;;;8.60;100.00;97235.56;5056642;28;20048;-57
2024/03/29 07:22:38;;;;;;;0.30;0.30;;;;;;;8.59;100.00;97237.44;5054022;28;20049;-59
2024/03/29 07:25:06;;;;;;;0.30;0.30;;;;;;;8.73;100.00;97242.91;5053932;28;20040;-58
2024/03/29 07:27:35;;;;;;;0.30;0.30;;;;;;;8.69;100.00;97233.88;5050930;28;20144;-58
2024/03/29 07:30:03;;;;;;;0.30;0.30;;;;;;;8.58;100.00;97232.34;5052978;28;20148;-58
2024/03/29 07:32:32;;;;;;;0.30;0.30;;;;;;;8.71;100.00;97231.75;5051744;28;20446;-58
2024/03/29 07:34:59;;;;;;;0.30;0.30;;;;;;;8.75;100.00;97238.09;5062260;28;20044;-59
2024/03/29 07:37:26;;;;;;;0.40;0.40;;;;;;;8.45;100.00;97238.31;5055179;28;20040;-60
2024/03/29 07:39:53;;;;;;;0.30;0.30;;;;;;;8.61;100.00;97247.81;5060707;28;20131;-57
2024/03/29 07:42:24;;;;;;;0.30;0.30;;;;;;;8.50;100.00;97243.63;5055182;28;20052;-60
2024/03/29 07:44:51;;;;;;;0.30;0.30;;;;;;;8.44;100.00;97234.88;5060263;28;20040;-57
2024/03/29 07:47:19;;;;;;;0.30;0.30;;;;;;;8.46;100.00;97246.03;5058744;28;20050;-59
2024/03/29 07:49:47;;;;;;;0.30;0.30;;;;;;;8.32;100.00;97243.19;5054098;28;20107;-60
2024/03/29 07:52:16;;;;;;;0.30;0.30;;;;;;;8.24;100.00;97233.09;5055525;28;20502;-60
2024/03/29 07:54:44;;;;;;;0.30;0.30;;;;;;;8.41;100.00;97227.38;5053307;28;20049;-59
2024/03/29 07:57:14;;;;;;;0.40;0.40;;;;;;;8.32;100.00;97229.81;5055433;28;20048;-59
2024/03/29 07:59:42;;;;;;;0.30;0.30;;;;;;;8.51;100.00;97221.19;5053116;28;20045;-60
2024/03/29 08:02:10;;;;;;;0.30;0.30;;;;;;;8.44;100.00;97232.19;5055935;28;20044;-60
2024/03/29 08:04:38;;;;;;;0.30;0.30;;;;;;;8.56;100.00;97246.00;5053565;28;20135;-58
2024/03/29 08:07:07;;;;;;;0.40;0.40;;;;;;;8.66;100.00;97238.97;5046775;28;20110;-59
2024/03/29 08:09:34;;;;;;;0.40;0.40;;;;;;;8.49;100.00;97244.72;5049756;28;20068;-59
2024/03/29 08:12:01;;;;;;;0.40;0.40;;;;;;;8.59;100.00;97239.31;5053388;28;20040;-58
2024/03/29 08:14:31;;;;;;;0.40;0.40;;;;;;;8.67;100.00;97235.25;5060581;28;20511;-59
2024/03/29 08:17:02;;;;;;;0.38;0.38;;;;;;;8.93;100.00;97233.94;5057566;28;20131;-59
2024/03/29 08:19:29;;;;;;;0.25;0.25;;;;;;;8.74;100.00;97233.84;5049473;28;20040;-59
2024/03/29 08:21:56;;;;;;;0.32;0.32;;;;;;;8.82;100.00;97232.44;5052264;28;20393;-59
2024/03/29 08:24:25;;;;;;;0.40;0.40;;;;;;;8.70;100.00;97230.13;5056793;28;20727;-59
2024/03/29 08:26:52;;;;;;;0.40;0.40;;;;;;;8.67;100.00;97224.56;5065970;28;20790;-59
2024/03/29 08:29:19;;;;;;;0.30;0.30;;;;;;;8.83;100.00;97234.81;5050592;28;20131;-59
2024/03/29 08:31:46;;;;;;;0.30;0.30;;;;;;;8.69;100.00;97228.56;5046467;28;20569;-59
2024/03/29 08:34:13;;;;;;;0.20;0.20;;;;;;;8.91;100.00;97246.00;5047651;28;20147;-59
2024/03/29 08:36:40;;;;;;;0.30;0.30;;;;;;;9.23;100.00;97251.59;5052535;28;20041;-59
2024/03/29 08:39:07;;;;;;;0.30;0.30;;;;;;;9.07;100.00;97252.81;5051494;28;20052;-59
2024/03/29 08:41:36;;;;;;;0.30;0.30;;;;;;;9.19;100.00;97258.59;5052351;28;20039;-59
2024/03/29 08:44:03;;;;;;;0.40;0.40;;;;;;;9.08;100.00;97254.41;5059310;28;20052;-59
2024/03/29 08:46:30;;;;;;;0.30;0.30;;;;;;;9.32;100.00;97262.47;5057901;28;20091;-59
2024/03/29 08:48:57;;;;;;;0.20;0.20;;;;;;;9.26;100.00;97258.25;5053921;28;20056;-59
2024/03/29 08:51:25;;;;;;;0.30;0.30;;;;;;;9.25;100.00;97262.00;5055580;28;20041;-59
2024/03/29 08:53:52;;;;;;;0.35;0.35;;;;;;;9.45;100.00;97255.66;5051176;28;20067;-59
2024/03/29 08:56:19;;;;;;;0.40;0.40;;;;;;;9.19;100.00;97247.91;5051773;28;20072;-59
2024/03/29 08:58:50;;;;;;;0.30;0.30;;;;;;;10.03;100.00;97268.91;5048239;28;20231;-59
2024/03/29 09:01:17;;;;;;;0.30;0.30;;;;;;;9.95;100.00;97264.22;5054281;28;20106;-59
2024/03/29 09:03:45;;;;;;;0.20;0.20;;;;;;;9.55;100.00;97271.59;5052200;28;20063;-59
2024/03/29 09:06:12;;;;;;;0.40;0.40;;;;;;;9.82;100.00;97270.25;5053919;28;20143;-60
2024/03/29 09:08:39;;;;;;;0.35;0.35;;;;;;;9.32;100.00;97278.53;5054389;28;20083;-59
2024/03/29 09:11:06;;;;;;;0.30;0.30;;;;;;;9.77;100.00;97273.00;5050598;28;20066;-59
2024/03/29 09:13:33;;;;;;;0.30;0.30;;;;;;;9.71;100.00;97270.38;5053289;28;20126;-59
2024/03/29 09:16:02;;;;;;;0.20;0.20;;;;;;;9.42;100.00;97281.09;5051866;28;20044;-59
2024/03/29 09:18:29;;;;;;;0.30;0.30;;;;;;;9.72;100.00;97279.97;5052359;28;20075;-59
2024/03/29 09:20:59;;;;;;;0.20;0.20;;;;;;;10.00;100.00;97271.38;5057335;28;20564;-59
2024/03/29 09:23:28;;;;;;;0.30;0.30;;;;;;;10.26;100.00;97271.84;5053030;28;20044;-59
2024/03/29 09:25:55;;;;;;;0.30;0.30;;;;;;;11.09;100.00;97270.41;5057631;28;20048;-59
2024/03/29 09:28:23;;;;;;;0.20;0.20;;;;;;;10.85;100.00;97288.47;5055155;28;20612;-59
2024/03/29 09:30:50;;;;;;;0.30;0.30;;;;;;;11.06;100.00;97299.66;5051911;28;20064;-59
2024/03/29 09:33:18;;;;;;;0.20;0.20;;;;;;;11.28;100.00;97304.41;5056315;28;20044;-59
2024/03/29 09:35:45;;;;;;;0.10;0.10;;;;;;;10.82;100.00;97292.53;5046288;28;20044;-59
2024/03/29 09:38:12;;;;;;;0.20;0.20;;;;;;;10.81;100.00;97293.63;5049959;28;20041;-59
2024/03/29 09:40:39;;;;;;;0.30;0.30;;;;;;;10.84;100.00;97301.09;5053119;28;20235;-59
2024/03/29 09:43:06;;;;;;;0.20;0.20;;;;;;;11.31;100.00;97298.50;5051461;28;20041;-59
2024/03/29 09:45:35;;;;;;;0.20;0.20;;;;;;;11.45;100.00;97299.28;5054156;28;20129;-59
2024/03/29 09:48:02;;;;;;;0.20;0.20;;;;;;;11.83;100.00;97307.19;5052226;28;20087;-60
2024/03/29 09:50:31;;;;;;;0.20;0.20;;;;;;;11.56;100.00;97297.25;5053790;28;20049;-59
2024/03/29 09:52:58;;;;;;;0.20;0.20;;;;;;;11.70;100.00;97305.31;5050706;28;20135;-59
2024/03/29 09:55:25;;;;;;;0.20;0.20;;;;;;;12.13;100.00;97308.56;5048378;28;20163;-59
2024/03/29 09:57:52;;;;;;;0.20;0.20;;;;;;;12.05;100.00;97312.72;5052992;28;20052;-59
2024/03/29 10:00:19;;;;;;;0.20;0.20;;;;;;;12.34;100.00;97308.13;5051431;28;20106;-59
2024/03/29 10:02:46;;;;;;;0.20;0.20;;;;;;;12.51;100.00;97297.56;5053430;28;20059;-56
2024/03/29 10:05:13;;;;;;;0.20;0.20;;;;;;;12.17;100.00;97312.22;5053063;28;20521;-59
2024/03/29 10:07:42;;;;;;;0.20;0.20;;;;;;;12.68;100.00;97315.72;5052757;28;20670;-59
2024/03/29 10:10:11;;;;;;;0.20;0.20;;;;;;;12.36;100.00;97312.13;5051939;28;20120;-59
2024/03/29 10:12:38;;;;;;;0.10;0.10;;;;;;;12.45;100.00;97317.56;5047244;28;20056;-59
2024/03/29 10:15:08;;;;;;;0.20;0.20;;;;;;;11.83;100.00;97316.06;5053699;28;20068;-59
2024/03/29 10:17:37;;;;;;;0.10;0.10;;;;;;;12.06;100.00;97314.31;5054007;28;20051;-59
2024/03/29 10:20:06;;;;;;;0.20;0.20;;;;;;;12.24;100.00;97331.41;5050977;28;20049;-59
2024/03/29 10:22:37;;;;;;;0.13;0.13;;;;;;;12.41;100.00;97346.16;5054552;28;20118;-59
2024/03/29 10:25:06;;;;;;;0.20;0.20;;;;;;;12.16;100.00;97318.69;5031307;28;20063;-59
2024/03/29 10:27:35;;;;;;;0.20;0.20;;;;;;;12.78;100.00;97317.38;5054350;28;20520;-59
2024/03/29 10:30:02;;;;;;;0.20;0.20;;;;;;;12.46;100.00;97332.59;5045744;28;20040;-59
2024/03/29 10:32:29;;;;;;;0.20;0.20;;;;;;;13.03;100.00;97324.91;5051971;28;20045;-59
2024/03/29 10:34:56;;;;;;;0.17;0.17;;;;;;;12.96;100.00;97340.66;5052610;28;20056;-59
2024/03/29 10:37:26;;;;;;;0.20;0.20;;;;;;;13.22;100.00;97335.47;5051490;28;20082;-59
2024/03/29 10:39:53;;;;;;;0.20;0.20;;;;;;;13.00;100.00;97335.44;5057128;28;20079;-57
2024/03/29 10:42:23;;;;;;;0.15;0.15;;;;;;;13.50;100.00;97335.34;5054879;28;20048;-57
2024/03/29 10:44:51;;;;;;;0.17;0.17;;;;;;;12.58;100.00;97330.19;5051229;28;20136;-57
2024/03/29 10:47:20;;;;;;;0.10;0.10;;;;;;;13.33;100.00;97328.00;5056575;28;20044;-57
2024/03/29 10:49:48;;;;;;;0.10;0.10;;;;;;;13.40;100.00;97332.94;5056649;28;20052;-58
2024/03/29 10:52:16;;;;;;;0.10;0.10;;;;;;;13.21;100.00;97330.41;5064467;28;20041;-58
2024/03/29 10:54:44;;;;;;;0.20;0.20;;;;;;;13.62;100.00;97330.22;5057916;28;20045;-57
2024/03/29 10:57:15;;;;;;;0.20;0.20;;;;;;;13.38;100.00;97333.25;5055902;28;20044;-57
2024/03/29 10:59:48;;;;;;;0.10;0.10;;;;;;;14.24;96.13;97332.84;5054493;28;20442;-58
2024/03/29 11:02:21;;;;;;;0.10;0.10;;;;;;;13.69;98.24;97337.84;5052921;28;20049;-58
2024/03/29 11:04:48;;;;;;;0.10;0.10;;;;;;;13.64;97.71;97362.22;5049715;28;20056;-58
2024/03/29 11:07:17;;;;;;;0.10;0.10;;;;;;;13.47;99.54;97360.19;5056402;28;20542;-57
2024/03/29 11:09:44;;;;;;;0.00;0.00;;;;;;;12.38;100.00;97352.09;5057504;28;20522;-57
2024/03/29 11:12:11;;;;;;;0.10;0.10;;;;;;;12.69;100.00;97352.28;5055539;28;20497;-57
2024/03/29 11:14:41;;;;;;;0.10;0.10;;;;;;;12.81;100.00;97344.47;5062745;28;20047;-58
2024/03/29 11:17:12;;;;;;;0.10;0.10;;;;;;;12.18;100.00;97343.38;5055311;28;20075;-58
2024/03/29 11:19:39;;;;;;;0.17;0.17;;;;;;;12.05;100.00;97366.41;5052294;28;20045;-60
2024/03/29 11:22:06;;;;;;;0.10;0.10;;;;;;;12.14;100.00;97361.16;5059123;28;20065;-57
2024/03/29 11:24:34;;;;;;;0.17;0.17;;;;;;;11.96;100.00;97335.22;5059063;28;20127;-58
2024/03/29 11:27:08;;;;;;;0.10;0.10;;;;;;;11.37;100.00;97326.81;5059171;28;20064;-58
2024/03/29 11:29:40;;;;;;;0.20;0.20;;;;;;;11.11;100.00;97332.59;5044649;28;20606;-57
2024/03/29 11:32:09;;;;;;;0.20;0.20;;;;;;;11.31;100.00;97312.69;5058463;28;20047;-57
2024/03/29 11:34:36;;;;;;;0.20;0.20;;;;;;;11.20;100.00;97319.28;5059325;28;20622;-57
2024/03/29 11:37:12;;;;;;;0.20;0.20;;;;;;;11.28;100.00;97315.94;5053193;28;20085;-57
2024/03/29 11:39:40;;;;;;;0.20;0.20;;;;;;;11.55;100.00;97319.78;5059300;28;20129;-58
2024/03/29 11:42:07;;;;;;;0.20;0.20;;;;;;;11.39;100.00;97305.84;5047369;28;20055;-58
2024/03/29 11:44:35;;;;;;;0.20;0.20;;;;;;;11.35;100.00;97319.03;5055285;28;20048;-58
2024/03/29 11:47:06;;;;;;;0.10;0.10;;;;;;;11.40;100.00;97329.69;5058230;28;20056;-58
2024/03/29 11:49:34;;;;;;;0.20;0.20;;;;;;;11.74;100.00;97349.25;5050347;28;20487;-57
2024/03/29 11:52:06;;;;;;;0.20;0.20;;;;;;;11.91;100.00;97336.09;5054662;28;20043;-59
2024/03/29 11:54:39;;;;;;;0.20;0.20;;;;;;;12.01;100.00;97343.94;5056255;28;20045;-57
2024/03/29 11:57:06;;;;;;;0.20;0.20;;;;;;;11.45;100.00;97353.75;5056765;28;20048;-57
2024/03/29 11:59:33;;;;;;;0.20;0.20;;;;;;;11.61;100.00;97361.56;5056604;28;20090;-58
2024/03/29 12:02:01;;;;;;;0.25;0.25;;;;;;;12.04;100.00;97366.72;5059218;28;20527;-58
2024/03/29 12:04:28;;;;;;;0.20;0.20;;;;;;;11.69;100.00;97373.50;5058824;28;20588;-57
2024/03/29 12:06:57;;;;;;;0.20;0.20;;;;;;;11.86;100.00;97371.06;5054855;28;20079;-58
2024/03/29 12:09:24;;;;;;;0.30;0.30;;;;;;;11.66;100.00;97369.53;5057176;28;20512;-58
2024/03/29 12:11:51;;;;;;;0.20;0.20;;;;;;;11.69;100.00;97385.03;5060487;28;20661;-58
2024/03/29 12:14:18;;;;;;;0.20;0.20;;;;;;;11.73;100.00;97385.22;5051827;28;20049;-58
2024/03/29 12:16:46;;;;;;;0.20;0.20;;;;;;;11.62;100.00;97384.59;5053328;28;20049;-59
2024/03/29 12:19:23;;;;;;;0.20;0.20;;;;;;;11.41;100.00;97382.25;5049604;28;20048;-58
2024/03/29 12:21:51;;;;;;;0.20;0.20;;;;;;;11.93;100.00;97374.19;5052487;28;20044;-58
2024/03/29 12:24:20;;;;;;;0.28;0.28;;;;;;;12.10;100.00;97376.25;5051877;28;20036;-58
2024/03/29 12:26:49;;;;;;;0.20;0.20;;;;;;;12.02;100.00;97385.00;5051282;28;20517;-58
2024/03/29 12:29:16;;;;;;;0.20;0.20;;;;;;;11.78;100.00;97412.78;5050715;28;20399;-58
2024/03/29 12:31:44;;;;;;;0.20;0.20;;;;;;;11.93;100.00;97406.41;5042230;28;20527;-58
2024/03/29 12:34:12;;;;;;;0.20;0.20;;;;;;;11.87;100.00;97423.66;5058629;28;20042;-58
2024/03/29 12:36:40;;;;;;;0.10;0.10;;;;;;;11.81;100.00;97425.63;5050179;28;20509;-58
2024/03/29 12:39:09;;;;;;;0.20;0.20;;;;;;;12.15;100.00;97427.19;5049948;28;20041;-58
2024/03/29 12:41:38;;;;;;;0.30;0.30;;;;;;;11.93;100.00;97427.06;5051303;28;20051;-58
2024/03/29 12:44:06;;;;;;;0.20;0.20;;;;;;;12.17;100.00;97438.44;5050625;28;20118;-58
2024/03/29 12:46:34;;;;;;;0.10;0.10;;;;;;;11.94;100.00;97444.78;5065154;28;20044;-58
2024/03/29 12:49:01;;;;;;;0.20;0.20;;;;;;;12.22;100.00;97441.03;5053485;28;20049;-59
2024/03/29 12:51:30;;;;;;;0.30;0.30;;;;;;;12.01;100.00;97429.88;5047734;28;20076;-60
2024/03/29 12:54:03;;;;;;;0.20;0.20;;;;;;;12.18;100.00;97434.69;5050728;28;20402;-60
2024/03/29 12:56:30;;;;;;;0.20;0.20;;;;;;;12.23;100.00;97437.28;5053768;28;20051;-58
2024/03/29 12:58:59;;;;;;;0.30;0.30;;;;;;;12.13;100.00;97440.16;5046692;28;20048;-60
2024/03/29 13:01:26;;;;;;;0.20;0.20;;;;;;;12.00;100.00;97447.06;5061022;28;21109;-59
2024/03/29 13:03:53;;;;;;;0.20;0.20;;;;;;;12.39;100.00;97450.41;5051526;28;20056;-58
2024/03/29 13:06:20;;;;;;;0.30;0.30;;;;;;;12.27;100.00;97454.38;5048811;28;20045;-58
2024/03/29 13:08:49;;;;;;;0.20;0.20;;;;;;;12.57;100.00;97457.59;5060365;28;20467;-58
2024/03/29 13:11:17;;;;;;;0.30;0.30;;;;;;;12.61;100.00;97455.13;5057832;28;20036;-58
2024/03/29 13:13:44;;;;;;;0.20;0.20;;;;;;;12.33;100.00;97430.09;5040577;28;20076;-58
2024/03/29 13:16:13;;;;;;;0.10;0.10;;;;;;;12.15;100.00;97421.81;5054514;28;20107;-58
2024/03/29 13:18:41;;;;;;;0.20;0.20;;;;;;;12.25;100.00;97437.75;5046492;28;20128;-58
2024/03/29 13:21:10;;;;;;;0.20;0.20;;;;;;;12.65;100.00;97442.66;5048913;28;20637;-58
2024/03/29 13:23:37;;;;;;;0.17;0.17;;;;;;;13.14;100.00;97455.34;5039389;28;20068;-58